Stations météo

réclame
Mon MeteoGroup
Zugspitze, Allemagne (10961): Température de l'air & dewpoint: 17.08.2019 15:00:00 - 23.08.2019 15:00:00 (CEST)Zugspitze, Allemagne (10961): Vitesse du vent & gusts: 17.08.2019 15:00:00 - 23.08.2019 15:00:00 (CEST)Zugspitze, Allemagne (10961): Direction du vent: 17.08.2019 15:00:00 - 23.08.2019 15:00:00 (CEST)Zugspitze, Allemagne (10961): visibility: 17.08.2019 15:00:00 - 23.08.2019 15:00:00 (CEST)Zugspitze, Allemagne (10961): Ensoleillement: 17.08.2019 15:00:00 - 23.08.2019 15:00:00 (CEST)
Date & Time tt [°C] td [°C] ff [km/h] ff [knt] fx [km/h] fx [knt] dd vv [km] sd [min]
23.08.2019 15:00:00 8,4 3,5 16 9 21 12 ESE 56 60
23.08.2019 14:00:00 8,4 1,9 14 7 21 11 SE 75 50
23.08.2019 13:00:00 8,5 1,1 13 7 18 10 ESE 75 60
23.08.2019 12:00:00 8,3 -1,5 11 6 18 10 ESE 61 60
23.08.2019 11:00:00 7,9 -4,9 11 6 20 11 ESE 75 60
23.08.2019 10:00:00 8,6 -18,7 11 6 17 9 ESE 72 60
23.08.2019 09:00:00 8,0 -18,7 15 8 16 9 E 75 60
23.08.2019 08:00:00 7,2 -19,8 14 8 17 9 E 64 39
23.08.2019 07:00:00 7,1 -22,2 12 7 16 9 NNE 75 6
23.08.2019 06:00:00 5,9 -18,9 11 6 13 7 N 75 0
23.08.2019 05:00:00 6,3 -20,5 8 4 10 5 N 75 0
23.08.2019 04:00:00 6,0 -20,1 7 4 8 5 E 75 0
23.08.2019 03:00:00 6,7 -21,0 3 2 8 4 N 75 0
23.08.2019 02:00:00 6,5 -20,4 4 2 9 5 SSE 75 0
23.08.2019 01:00:00 6,2 -20,0 4 2 10 5 ESE 75 0
23.08.2019 00:00:00 6,4 -20,4 6 3 8 4 NE 75 0
22.08.2019 23:00:00 6,4 -20,7 4 2 6 3 NNE 75 0
22.08.2019 22:00:00 6,1 -9,7 3 2 9 5 NNW 75 0
22.08.2019 21:00:00 6,1 0,9 3 2 10 6 W 75 21
22.08.2019 20:00:00 7,9 2,1 3 2 13 7 SW 56 60
22.08.2019 19:00:00 7,5 -1,7 3 2 12 6 W 75 60
22.08.2019 18:00:00 7,6 1,2 4 2 12 7 NNW 62 60
22.08.2019 17:00:00 8,4 2,2 6 3 15 8 SW 61 60
22.08.2019 16:00:00 9,1 2,5 8 4 16 8 SSW 68 60
22.08.2019 15:00:00 9,8 1,5 9 5 16 9 S 75 60
22.08.2019 14:00:00 7,6 0,7 10 5 17 9 SW 57 60
22.08.2019 13:00:00 8,1 0,2 9 5 15 8 SW 75 60
22.08.2019 12:00:00 8,2 2,6 10 5 17 9 SW 59 60
22.08.2019 11:00:00 7,1 2,7 10 5 19 10 WSW 45 60
22.08.2019 10:00:00 6,0 2,9 10 6 23 12 WSW 35 58
22.08.2019 09:00:00 5,9 2,7 16 9 28 15 WSW 36 52
22.08.2019 08:00:00 5,3 2,7 16 9 26 14 SW 50 3
22.08.2019 07:00:00 5,1 2,7 21 12 37 20 SW 43 0
22.08.2019 06:00:00 5,1 2,7 25 13 41 22 SW 40 0
22.08.2019 05:00:00 5,4 2,8 23 12 39 21 SW 43 0
22.08.2019 04:00:00 5,6 3,0 25 13 35 19 SW 53 0
22.08.2019 03:00:00 5,8 3,0 24 13 35 19 WSW 53 0
22.08.2019 02:00:00 5,7 3,0 22 12 38 21 WSW 45 0
22.08.2019 01:00:00 5,9 2,8 20 11 30 16 WSW 52 0
22.08.2019 00:00:00 5,9 2,2 16 9 24 13 SW 67 0
21.08.2019 23:00:00 5,3 3,5 18 10 24 13 S 39 0
21.08.2019 22:00:00 5,9 3,6 8 4 17 9 SW 42 0
21.08.2019 21:00:00 5,9 3,4 8 4 13 7 WSW 43 0
21.08.2019 20:00:00 6,1 3,5 10 5 16 9 SW 43 3
21.08.2019 19:00:00 7,2 3,9 10 5 18 10 WSW 52 53
21.08.2019 18:00:00 8,1 3,5 9 5 23 12 WSW 49 45
21.08.2019 17:00:00 8,5 3,2 13 7 26 14 WSW 43 60
21.08.2019 16:00:00 8,3 3,3 15 8 26 14 SW 63 60
21.08.2019 15:00:00 8,4 3,9 13 7 30 16 SSW 53 60
21.08.2019 14:00:00 7,0 2,9 20 11 29 16 SW 36 60
21.08.2019 13:00:00 6,5 2,0 21 12 27 14 SSW 75 60
21.08.2019 12:00:00 6,2 1,6 15 8 26 14 S 57 60
21.08.2019 11:00:00 5,1 1,5 18 10 24 13 SSW 72 60
21.08.2019 10:00:00 4,2 1,2 14 8 24 13 SSW 75 58
21.08.2019 09:00:00 2,5 1,2 23 12 28 15 S 75 44
21.08.2019 08:00:00 1,6 1,4 25 14 31 17 S 75 1
21.08.2019 07:00:00 0,7 0,7 25 13 30 16 S 0,2 0
21.08.2019 06:00:00 0,2 0,2 26 14 31 17 S 0,1 0
21.08.2019 05:00:00 0,0 0,0 26 14 30 16 S 0,2 0
21.08.2019 04:00:00 0,2 0,2 15 8 28 15 SE 0,2 0
21.08.2019 03:00:00 0,1 0,1 6 4 22 12 W 1,2 0
21.08.2019 02:00:00 0,1 0,1 9 5 17 9 ESE 0,1 0
21.08.2019 01:00:00 0,3 0,3 3 1 19 10 NNE 0,1 0
21.08.2019 00:00:00 0,6 0,6 8 5 20 11 N 0,1 0
20.08.2019 23:00:00 0,3 0,3 5 3 30 16 NNW 0,2 0
20.08.2019 22:00:00 1,1 1,0 13 7 29 16 NNW 0,1 0
20.08.2019 21:00:00 3,5 3,5 16 9 37 20 SE 0,1 0
20.08.2019 20:00:00 1,3 1,3 10 6 46 25 S 0,1 0
20.08.2019 19:00:00 3,2 3,2 14 8 36 19 SE 0,1 0
20.08.2019 18:00:00 5,9 5,9 16 9 31 17 SSE - 0
20.08.2019 17:00:00 6,1 6,1 24 13 49 27 S 0,1 10
20.08.2019 16:00:00 6,2 6,2 29 16 42 23 SSE - 14
20.08.2019 15:00:00 6,1 6,1 26 14 37 20 SE - 24
20.08.2019 14:00:00 5,8 5,8 19 11 34 19 SE - 2
20.08.2019 13:00:00 5,0 4,9 24 13 40 22 SE - 0
20.08.2019 12:00:00 4,5 4,5 26 14 45 24 SSE 0,1 0
20.08.2019 11:00:00 4,2 4,1 18 10 26 14 ESE - 0
20.08.2019 10:00:00 3,9 3,3 14 8 18 10 ESE 0,1 0
20.08.2019 09:00:00 4,6 2,7 15 8 21 11 ESE 75 0
20.08.2019 08:00:00 4,9 2,5 8 5 10 5 ESE 70 0
20.08.2019 07:00:00 4,7 2,1 5 3 26 14 WNW 75 0
20.08.2019 06:00:00 4,0 1,9 23 13 32 18 W 75 0
20.08.2019 05:00:00 3,6 2,5 25 14 44 24 WSW 75 0
20.08.2019 04:00:00 3,5 3,3 27 15 54 29 WSW 2,3 0
20.08.2019 03:00:00 3,4 3,4 21 11 45 24 W 0,1 0
20.08.2019 02:00:00 3,9 3,9 20 11 46 25 WNW - 0
20.08.2019 01:00:00 4,9 2,7 26 14 41 22 WSW 52 0
20.08.2019 00:00:00 5,3 2,3 19 11 38 21 SSW 75 0
19.08.2019 23:00:00 4,8 2,5 30 16 47 26 SW 75 0
19.08.2019 22:00:00 4,9 2,3 32 18 54 29 WSW 75 0
19.08.2019 21:00:00 4,9 2,6 32 17 46 25 SW 75 0
19.08.2019 20:00:00 5,2 1,9 37 20 88 47 SW 62 0
19.08.2019 19:00:00 6,6 6,6 9 5 31 17 W - 0
19.08.2019 18:00:00 7,3 4,2 26 14 35 19 S 13 50
19.08.2019 17:00:00 6,7 6,1 27 15 36 20 SSE - 51
19.08.2019 16:00:00 7,0 2,9 23 12 39 21 SSW 74 30
19.08.2019 15:00:00 6,3 3,1 24 13 38 20 SW 75 30
19.08.2019 14:00:00 5,9 2,6 24 13 41 22 SW 75 0
19.08.2019 13:00:00 6,1 2,9 22 12 42 23 SW 75 24
19.08.2019 12:00:00 6,0 2,4 29 16 44 24 WSW 72 22
19.08.2019 11:00:00 5,0 2,9 36 19 62 33 WSW 75 0
19.08.2019 10:00:00 2,9 2,6 19 10 45 25 WNW 75 0
19.08.2019 09:00:00 3,1 3,1 18 10 51 28 NNW - 0
19.08.2019 08:00:00 3,9 3,9 29 16 72 39 W - 0
19.08.2019 07:00:00 3,3 3,3 34 18 74 40 WNW 0,1 0
19.08.2019 06:00:00 3,9 3,9 25 14 47 26 WSW - 0
19.08.2019 05:00:00 5,1 5,1 25 13 34 19 SSE - 0
19.08.2019 04:00:00 5,4 5,4 19 10 34 19 ESE - 0
19.08.2019 03:00:00 6,5 6,5 21 11 33 18 S - 0
19.08.2019 02:00:00 7,1 7,0 11 6 22 12 SSW 0,1 0
19.08.2019 01:00:00 7,2 6,9 18 10 25 13 SSE 4,5 0
19.08.2019 00:00:00 8,1 6,4 9 5 17 9 SE 45 0
18.08.2019 23:00:00 8,4 6,0 16 8 19 10 SE 57 0
18.08.2019 22:00:00 9,7 5,5 11 6 24 13 SW 75 0
18.08.2019 21:00:00 9,9 5,0 18 10 28 15 SW 75 18
18.08.2019 20:00:00 11,0 6,0 14 7 22 12 SW 66 60
18.08.2019 19:00:00 11,2 6,7 8 4 20 11 S 70 20
18.08.2019 18:00:00 10,0 6,6 16 8 26 14 SE 60 -
18.08.2019 17:00:00 9,9 6,5 21 11 27 15 ESE 53 -
18.08.2019 16:00:00 10,8 5,9 16 9 24 13 ESE 51 -
18.08.2019 15:00:00 11,4 4,7 14 8 23 12 SE 75 -
18.08.2019 14:00:00 10,7 3,2 14 8 26 14 SE 75 -
18.08.2019 13:00:00 11,7 2,2 9 5 27 15 SSE 64 -
18.08.2019 12:00:00 11,0 0,8 15 8 44 24 SSW 75 -
18.08.2019 11:00:00 9,4 -0,4 29 16 51 28 SW 75 -
18.08.2019 10:00:00 8,6 -0,6 33 18 53 29 SW 75 -
18.08.2019 09:00:00 8,4 -1,0 29 16 53 29 WSW 75 -
18.08.2019 08:00:00 8,0 -0,8 34 18 56 31 SW 75 -
18.08.2019 07:00:00 7,3 -0,6 39 21 62 34 SW 75 -
18.08.2019 06:00:00 7,1 -0,2 37 20 66 36 WSW 75 -
18.08.2019 05:00:00 6,8 0,4 34 18 60 32 WSW 75 -
18.08.2019 04:00:00 6,8 1,2 36 19 67 36 WSW 75 -
18.08.2019 03:00:00 6,8 1,8 34 18 64 34 WSW 75 -
18.08.2019 02:00:00 6,9 1,2 36 20 67 36 WSW 75 -
18.08.2019 01:00:00 6,5 1,2 35 19 60 32 WSW 75 -
18.08.2019 00:00:00 6,4 1,0 32 17 55 30 WSW 75 -
17.08.2019 23:00:00 6,1 0,8 28 15 44 24 WSW 75 -
17.08.2019 22:00:00 6,5 0,7 23 13 51 28 WSW 75 -
17.08.2019 21:00:00 6,6 0,6 34 19 61 33 WSW 75 -
17.08.2019 20:00:00 5,5 0,9 16 9 45 24 WNW 53 -
17.08.2019 19:00:00 6,7 -0,9 29 16 54 29 WSW 75 -
17.08.2019 18:00:00 6,7 -0,9 31 17 57 31 WSW 47 -
17.08.2019 17:00:00 7,0 -2,6 32 17 64 35 WSW 75 -
17.08.2019 16:00:00 6,6 -2,5 36 20 64 35 WSW 45 -
17.08.2019 15:00:00 6,6 -2,3 26 14 39 21 SW 75 -

tt = Température de l'air
td = dewpoint
ff = Vitesse du vent
fx = gusts
dd = Direction du vent
vv = visibility
sd = Ensoleillement

stations d'obs. à proximité